sensor_id;sensor_type;location;lat;lon;timestamp;P1;durP1;ratioP1;P2;durP2;ratioP2
39218;SDS011;24934;52.752;6.964;2022-10-31T00:00:40;54.85;;;32.72;;
39218;SDS011;24934;52.752;6.964;2022-10-31T00:03:06;52.88;;;32.03;;
39218;SDS011;24934;52.752;6.964;2022-10-31T00:05:31;58.95;;;33.92;;
39218;SDS011;24934;52.752;6.964;2022-10-31T00:07:57;56.15;;;31.55;;
39218;SDS011;24934;52.752;6.964;2022-10-31T00:10:23;62.55;;;32.22;;
39218;SDS011;24934;52.752;6.964;2022-10-31T00:12:48;61.60;;;33.33;;
39218;SDS011;24934;52.752;6.964;2022-10-31T00:15:14;51.30;;;30.42;;
39218;SDS011;24934;52.752;6.964;2022-10-31T00:17:39;62.45;;;32.88;;
39218;SDS011;24934;52.752;6.964;2022-10-31T00:20:05;57.92;;;32.13;;
39218;SDS011;24934;52.752;6.964;2022-10-31T00:22:31;53.90;;;32.67;;
39218;SDS011;24934;52.752;6.964;2022-10-31T00:24:57;57.00;;;31.98;;
39218;SDS011;24934;52.752;6.964;2022-10-31T00:27:22;60.85;;;33.50;;
39218;SDS011;24934;52.752;6.964;2022-10-31T00:29:48;56.20;;;33.58;;
39218;SDS011;24934;52.752;6.964;2022-10-31T00:32:13;59.03;;;33.47;;
39218;SDS011;24934;52.752;6.964;2022-10-31T00:34:39;54.17;;;33.17;;
39218;SDS011;24934;52.752;6.964;2022-10-31T00:37:04;58.50;;;33.90;;
39218;SDS011;24934;52.752;6.964;2022-10-31T00:39:30;61.58;;;33.00;;
39218;SDS011;24934;52.752;6.964;2022-10-31T00:41:56;60.05;;;33.72;;
39218;SDS011;24934;52.752;6.964;2022-10-31T00:44:21;66.78;;;35.38;;
39218;SDS011;24934;52.752;6.964;2022-10-31T00:46:47;62.05;;;34.65;;
39218;SDS011;24934;52.752;6.964;2022-10-31T00:49:12;67.60;;;34.40;;
39218;SDS011;24934;52.752;6.964;2022-10-31T00:51:38;51.72;;;33.80;;
39218;SDS011;24934;52.752;6.964;2022-10-31T00:54:03;62.88;;;34.47;;
39218;SDS011;24934;52.752;6.964;2022-10-31T00:56:29;63.72;;;33.85;;
39218;SDS011;24934;52.752;6.964;2022-10-31T00:58:54;61.65;;;33.50;;
39218;SDS011;24934;52.752;6.964;2022-10-31T01:01:20;58.17;;;33.50;;
39218;SDS011;24934;52.752;6.964;2022-10-31T01:03:46;61.55;;;33.03;;
39218;SDS011;24934;52.752;6.964;2022-10-31T01:06:12;58.95;;;32.90;;
39218;SDS011;24934;52.752;6.964;2022-10-31T01:08:38;52.10;;;32.58;;
39218;SDS011;24934;52.752;6.964;2022-10-31T01:11:12;54.83;;;31.88;;
39218;SDS011;24934;52.752;6.964;2022-10-31T01:13:39;53.00;;;30.65;;
39218;SDS011;24934;52.752;6.964;2022-10-31T01:16:06;59.10;;;32.73;;
39218;SDS011;24934;52.752;6.964;2022-10-31T01:18:33;56.40;;;33.50;;
39218;SDS011;24934;52.752;6.964;2022-10-31T01:20:59;57.30;;;33.80;;
39218;SDS011;24934;52.752;6.964;2022-10-31T01:23:27;60.95;;;34.55;;
39218;SDS011;24934;52.752;6.964;2022-10-31T01:26:00;58.80;;;32.70;;
39218;SDS011;24934;52.752;6.964;2022-10-31T01:28:53;59.60;;;33.40;;
39218;SDS011;24934;52.752;6.964;2022-10-31T01:31:21;66.38;;;35.08;;
39218;SDS011;24934;52.752;6.964;2022-10-31T01:33:49;57.40;;;33.87;;
39218;SDS011;24934;52.752;6.964;2022-10-31T01:36:17;53.13;;;33.00;;
39218;SDS011;24934;52.752;6.964;2022-10-31T01:38:46;55.57;;;33.70;;
39218;SDS011;24934;52.752;6.964;2022-10-31T01:41:13;58.03;;;32.77;;
39218;SDS011;24934;52.752;6.964;2022-10-31T01:44:03;56.50;;;32.77;;
39218;SDS011;24934;52.752;6.964;2022-10-31T01:49:17;49.40;;;31.23;;
39218;SDS011;24934;52.752;6.964;2022-10-31T01:51:50;54.43;;;32.93;;
39218;SDS011;24934;52.752;6.964;2022-10-31T01:54:20;52.13;;;32.63;;
39218;SDS011;24934;52.752;6.964;2022-10-31T01:56:50;55.80;;;31.73;;
39218;SDS011;24934;52.752;6.964;2022-10-31T01:59:19;55.73;;;31.87;;
39218;SDS011;24934;52.752;6.964;2022-10-31T02:01:47;55.20;;;33.13;;
39218;SDS011;24934;52.752;6.964;2022-10-31T02:04:14;60.00;;;33.40;;
39218;SDS011;24934;52.752;6.964;2022-10-31T02:07:01;56.15;;;31.75;;
39218;SDS011;24934;52.752;6.964;2022-10-31T02:09:34;49.83;;;30.57;;
39218;SDS011;24934;52.752;6.964;2022-10-31T02:12:01;58.57;;;32.27;;
39218;SDS011;24934;52.752;6.964;2022-10-31T02:14:28;51.50;;;32.10;;
39218;SDS011;24934;52.752;6.964;2022-10-31T02:16:55;50.93;;;30.97;;
39218;SDS011;24934;52.752;6.964;2022-10-31T02:20:08;50.97;;;31.43;;
39218;SDS011;24934;52.752;6.964;2022-10-31T02:22:15;54.27;;;31.67;;
39218;SDS011;24934;52.752;6.964;2022-10-31T02:24:53;45.30;;;29.87;;
39218;SDS011;24934;52.752;6.964;2022-10-31T02:30:24;58.00;;;32.87;;
39218;SDS011;24934;52.752;6.964;2022-10-31T02:33:06;62.03;;;32.30;;
39218;SDS011;24934;52.752;6.964;2022-10-31T02:36:00;54.20;;;31.63;;
39218;SDS011;24934;52.752;6.964;2022-10-31T02:44:00;51.30;;;30.83;;
39218;SDS011;24934;52.752;6.964;2022-10-31T02:46:36;46.87;;;29.00;;
39218;SDS011;24934;52.752;6.964;2022-10-31T02:49:39;43.47;;;28.50;;
39218;SDS011;24934;52.752;6.964;2022-10-31T02:52:13;41.97;;;28.60;;
39218;SDS011;24934;52.752;6.964;2022-10-31T02:54:53;42.20;;;29.33;;
39218;SDS011;24934;52.752;6.964;2022-10-31T02:57:27;55.27;;;29.73;;
39218;SDS011;24934;52.752;6.964;2022-10-31T03:00:14;49.20;;;30.67;;
39218;SDS011;24934;52.752;6.964;2022-10-31T03:02:43;52.37;;;30.43;;
39218;SDS011;24934;52.752;6.964;2022-10-31T03:13:10;52.27;;;30.87;;
39218;SDS011;24934;52.752;6.964;2022-10-31T03:15:49;44.87;;;30.57;;
39218;SDS011;24934;52.752;6.964;2022-10-31T03:18:23;46.57;;;29.93;;
39218;SDS011;24934;52.752;6.964;2022-10-31T03:20:59;49.30;;;30.53;;
39218;SDS011;24934;52.752;6.964;2022-10-31T03:23:30;43.23;;;29.37;;
39218;SDS011;24934;52.752;6.964;2022-10-31T03:25:59;47.20;;;30.67;;
39218;SDS011;24934;52.752;6.964;2022-10-31T03:28:31;57.20;;;31.13;;
39218;SDS011;24934;52.752;6.964;2022-10-31T03:31:01;49.40;;;30.27;;
39218;SDS011;24934;52.752;6.964;2022-10-31T03:33:30;49.17;;;31.20;;
39218;SDS011;24934;52.752;6.964;2022-10-31T03:35:59;52.73;;;31.57;;
39218;SDS011;24934;52.752;6.964;2022-10-31T03:38:27;55.33;;;32.83;;
39218;SDS011;24934;52.752;6.964;2022-10-31T03:41:03;52.50;;;33.40;;
39218;SDS011;24934;52.752;6.964;2022-10-31T03:46:37;55.60;;;31.23;;
39218;SDS011;24934;52.752;6.964;2022-10-31T03:49:07;67.10;;;34.13;;
39218;SDS011;24934;52.752;6.964;2022-10-31T03:51:47;61.87;;;35.07;;
39218;SDS011;24934;52.752;6.964;2022-10-31T04:00:13;78.20;;;40.87;;
39218;SDS011;24934;52.752;6.964;2022-10-31T04:02:40;79.43;;;40.97;;
39218;SDS011;24934;52.752;6.964;2022-10-31T04:05:10;74.70;;;40.50;;
39218;SDS011;24934;52.752;6.964;2022-10-31T04:07:38;84.50;;;43.40;;
39218;SDS011;24934;52.752;6.964;2022-10-31T04:10:10;80.33;;;41.57;;
39218;SDS011;24934;52.752;6.964;2022-10-31T04:12:38;86.70;;;44.67;;
39218;SDS011;24934;52.752;6.964;2022-10-31T04:15:06;88.50;;;44.67;;
39218;SDS011;24934;52.752;6.964;2022-10-31T04:17:34;93.97;;;44.87;;
39218;SDS011;24934;52.752;6.964;2022-10-31T04:20:03;102.83;;;48.83;;
39218;SDS011;24934;52.752;6.964;2022-10-31T04:22:29;81.77;;;45.83;;
39218;SDS011;24934;52.752;6.964;2022-10-31T04:24:55;100.27;;;46.07;;
39218;SDS011;24934;52.752;6.964;2022-10-31T04:27:20;81.87;;;43.77;;
39218;SDS011;24934;52.752;6.964;2022-10-31T04:29:46;88.13;;;45.27;;
39218;SDS011;24934;52.752;6.964;2022-10-31T04:32:12;89.50;;;44.30;;
39218;SDS011;24934;52.752;6.964;2022-10-31T04:34:37;85.03;;;43.93;;
39218;SDS011;24934;52.752;6.964;2022-10-31T04:37:03;81.43;;;43.87;;
39218;SDS011;24934;52.752;6.964;2022-10-31T04:39:28;75.07;;;41.57;;
39218;SDS011;24934;52.752;6.964;2022-10-31T04:41:54;70.33;;;42.77;;
39218;SDS011;24934;52.752;6.964;2022-10-31T04:44:20;74.43;;;43.80;;
39218;SDS011;24934;52.752;6.964;2022-10-31T04:46:45;85.00;;;47.33;;
39218;SDS011;24934;52.752;6.964;2022-10-31T04:49:11;96.23;;;46.20;;
39218;SDS011;24934;52.752;6.964;2022-10-31T04:51:37;89.50;;;45.07;;
39218;SDS011;24934;52.752;6.964;2022-10-31T04:54:02;92.87;;;46.40;;
39218;SDS011;24934;52.752;6.964;2022-10-31T04:56:28;97.77;;;47.50;;
39218;SDS011;24934;52.752;6.964;2022-10-31T04:58:53;95.00;;;48.60;;
39218;SDS011;24934;52.752;6.964;2022-10-31T05:01:19;98.53;;;48.97;;
39218;SDS011;24934;52.752;6.964;2022-10-31T05:03:45;91.60;;;45.37;;
39218;SDS011;24934;52.752;6.964;2022-10-31T05:06:10;83.80;;;43.47;;
39218;SDS011;24934;52.752;6.964;2022-10-31T05:08:36;79.47;;;42.60;;
39218;SDS011;24934;52.752;6.964;2022-10-31T05:11:02;75.97;;;43.37;;
39218;SDS011;24934;52.752;6.964;2022-10-31T05:13:28;78.33;;;44.60;;
39218;SDS011;24934;52.752;6.964;2022-10-31T05:15:54;74.00;;;42.47;;
39218;SDS011;24934;52.752;6.964;2022-10-31T05:18:20;73.43;;;40.60;;
39218;SDS011;24934;52.752;6.964;2022-10-31T05:20:46;78.97;;;42.73;;
39218;SDS011;24934;52.752;6.964;2022-10-31T05:23:12;72.60;;;41.87;;
39218;SDS011;24934;52.752;6.964;2022-10-31T05:25:39;77.43;;;43.37;;
39218;SDS011;24934;52.752;6.964;2022-10-31T05:28:05;112.60;;;56.00;;
39218;SDS011;24934;52.752;6.964;2022-10-31T05:30:31;83.70;;;47.83;;
39218;SDS011;24934;52.752;6.964;2022-10-31T05:32:57;80.90;;;45.70;;
39218;SDS011;24934;52.752;6.964;2022-10-31T05:35:27;75.63;;;44.53;;
39218;SDS011;24934;52.752;6.964;2022-10-31T05:37:54;86.13;;;44.57;;
39218;SDS011;24934;52.752;6.964;2022-10-31T05:40:20;71.47;;;40.33;;
39218;SDS011;24934;52.752;6.964;2022-10-31T05:42:46;75.37;;;41.70;;
39218;SDS011;24934;52.752;6.964;2022-10-31T05:45:13;78.00;;;41.97;;
39218;SDS011;24934;52.752;6.964;2022-10-31T05:47:41;84.07;;;43.53;;
39218;SDS011;24934;52.752;6.964;2022-10-31T05:50:07;90.53;;;46.33;;
39218;SDS011;24934;52.752;6.964;2022-10-31T05:52:33;99.53;;;47.37;;
39218;SDS011;24934;52.752;6.964;2022-10-31T05:55:00;99.50;;;45.87;;
39218;SDS011;24934;52.752;6.964;2022-10-31T05:57:25;97.23;;;45.90;;
39218;SDS011;24934;52.752;6.964;2022-10-31T05:59:51;88.73;;;47.23;;
39218;SDS011;24934;52.752;6.964;2022-10-31T06:02:18;86.30;;;45.90;;
39218;SDS011;24934;52.752;6.964;2022-10-31T06:04:44;72.93;;;40.90;;
39218;SDS011;24934;52.752;6.964;2022-10-31T06:07:10;63.57;;;38.63;;
39218;SDS011;24934;52.752;6.964;2022-10-31T06:09:35;56.90;;;38.47;;
39218;SDS011;24934;52.752;6.964;2022-10-31T06:12:01;59.83;;;37.93;;
39218;SDS011;24934;52.752;6.964;2022-10-31T06:14:26;58.07;;;36.27;;
39218;SDS011;24934;52.752;6.964;2022-10-31T06:16:53;60.10;;;38.60;;
39218;SDS011;24934;52.752;6.964;2022-10-31T06:19:19;70.90;;;40.70;;
39218;SDS011;24934;52.752;6.964;2022-10-31T06:21:45;65.43;;;38.90;;
39218;SDS011;24934;52.752;6.964;2022-10-31T06:24:11;66.80;;;38.33;;
39218;SDS011;24934;52.752;6.964;2022-10-31T06:26:36;70.97;;;39.33;;
39218;SDS011;24934;52.752;6.964;2022-10-31T06:29:02;76.47;;;42.23;;
39218;SDS011;24934;52.752;6.964;2022-10-31T06:31:27;80.30;;;42.67;;
39218;SDS011;24934;52.752;6.964;2022-10-31T06:33:53;88.43;;;45.30;;
39218;SDS011;24934;52.752;6.964;2022-10-31T06:36:18;93.23;;;46.70;;
39218;SDS011;24934;52.752;6.964;2022-10-31T06:38:44;81.20;;;44.00;;
39218;SDS011;24934;52.752;6.964;2022-10-31T06:41:10;85.07;;;45.03;;
39218;SDS011;24934;52.752;6.964;2022-10-31T06:43:35;84.63;;;43.83;;
39218;SDS011;24934;52.752;6.964;2022-10-31T06:46:01;88.57;;;47.10;;
39218;SDS011;24934;52.752;6.964;2022-10-31T06:48:28;87.80;;;46.03;;
39218;SDS011;24934;52.752;6.964;2022-10-31T06:50:56;93.37;;;47.67;;
39218;SDS011;24934;52.752;6.964;2022-10-31T06:53:23;108.43;;;50.77;;
39218;SDS011;24934;52.752;6.964;2022-10-31T06:55:49;110.73;;;50.57;;
39218;SDS011;24934;52.752;6.964;2022-10-31T06:58:14;106.90;;;52.40;;
39218;SDS011;24934;52.752;6.964;2022-10-31T07:00:40;106.47;;;53.57;;
39218;SDS011;24934;52.752;6.964;2022-10-31T07:03:06;106.00;;;53.90;;
39218;SDS011;24934;52.752;6.964;2022-10-31T07:05:35;95.73;;;51.47;;
39218;SDS011;24934;52.752;6.964;2022-10-31T07:08:02;104.70;;;51.60;;
39218;SDS011;24934;52.752;6.964;2022-10-31T07:10:32;111.07;;;53.87;;
39218;SDS011;24934;52.752;6.964;2022-10-31T07:12:59;101.93;;;53.57;;
39218;SDS011;24934;52.752;6.964;2022-10-31T07:15:27;108.67;;;54.13;;
39218;SDS011;24934;52.752;6.964;2022-10-31T07:17:53;104.70;;;53.03;;
39218;SDS011;24934;52.752;6.964;2022-10-31T07:20:23;120.07;;;55.80;;
39218;SDS011;24934;52.752;6.964;2022-10-31T07:22:49;119.50;;;56.13;;
39218;SDS011;24934;52.752;6.964;2022-10-31T07:25:14;146.53;;;59.03;;
39218;SDS011;24934;52.752;6.964;2022-10-31T07:27:41;137.50;;;61.03;;
39218;SDS011;24934;52.752;6.964;2022-10-31T07:30:08;149.13;;;60.63;;
39218;SDS011;24934;52.752;6.964;2022-10-31T07:32:38;131.70;;;61.30;;
39218;SDS011;24934;52.752;6.964;2022-10-31T07:35:06;158.80;;;64.17;;
39218;SDS011;24934;52.752;6.964;2022-10-31T07:37:35;138.43;;;60.73;;
39218;SDS011;24934;52.752;6.964;2022-10-31T07:40:02;135.03;;;60.50;;
39218;SDS011;24934;52.752;6.964;2022-10-31T07:42:29;142.17;;;60.27;;
39218;SDS011;24934;52.752;6.964;2022-10-31T07:45:07;166.13;;;65.30;;
39218;SDS011;24934;52.752;6.964;2022-10-31T07:47:45;139.93;;;62.37;;
39218;SDS011;24934;52.752;6.964;2022-10-31T07:50:12;146.33;;;62.00;;
39218;SDS011;24934;52.752;6.964;2022-10-31T07:52:40;159.93;;;63.37;;
39218;SDS011;24934;52.752;6.964;2022-10-31T07:55:06;154.73;;;63.30;;
39218;SDS011;24934;52.752;6.964;2022-10-31T07:57:34;162.87;;;64.93;;
39218;SDS011;24934;52.752;6.964;2022-10-31T08:00:02;151.60;;;65.03;;
39218;SDS011;24934;52.752;6.964;2022-10-31T08:02:29;140.43;;;63.90;;
39218;SDS011;24934;52.752;6.964;2022-10-31T08:04:54;138.47;;;63.40;;
39218;SDS011;24934;52.752;6.964;2022-10-31T08:07:20;137.00;;;64.17;;
39218;SDS011;24934;52.752;6.964;2022-10-31T08:09:45;140.67;;;64.40;;
39218;SDS011;24934;52.752;6.964;2022-10-31T08:12:11;122.07;;;61.80;;
39218;SDS011;24934;52.752;6.964;2022-10-31T08:14:37;123.77;;;61.37;;
39218;SDS011;24934;52.752;6.964;2022-10-31T08:17:02;123.00;;;62.80;;
39218;SDS011;24934;52.752;6.964;2022-10-31T08:19:28;109.67;;;59.40;;
39218;SDS011;24934;52.752;6.964;2022-10-31T08:21:53;116.17;;;60.07;;
39218;SDS011;24934;52.752;6.964;2022-10-31T08:24:20;108.30;;;58.87;;
39218;SDS011;24934;52.752;6.964;2022-10-31T08:26:46;112.63;;;58.20;;
39218;SDS011;24934;52.752;6.964;2022-10-31T08:29:12;97.33;;;55.90;;
39218;SDS011;24934;52.752;6.964;2022-10-31T08:31:38;98.27;;;55.10;;
39218;SDS011;24934;52.752;6.964;2022-10-31T08:34:03;97.93;;;53.88;;
39218;SDS011;24934;52.752;6.964;2022-10-31T08:36:29;95.80;;;52.07;;
39218;SDS011;24934;52.752;6.964;2022-10-31T08:38:55;80.93;;;47.57;;
39218;SDS011;24934;52.752;6.964;2022-10-31T08:41:20;74.28;;;46.67;;
39218;SDS011;24934;52.752;6.964;2022-10-31T08:43:46;76.28;;;45.92;;
39218;SDS011;24934;52.752;6.964;2022-10-31T08:46:12;71.07;;;44.05;;
39218;SDS011;24934;52.752;6.964;2022-10-31T08:48:37;60.13;;;41.00;;
39218;SDS011;24934;52.752;6.964;2022-10-31T08:51:03;60.58;;;40.00;;
39218;SDS011;24934;52.752;6.964;2022-10-31T08:53:29;56.75;;;40.22;;
39218;SDS011;24934;52.752;6.964;2022-10-31T08:55:57;56.00;;;37.60;;
39218;SDS011;24934;52.752;6.964;2022-10-31T08:58:23;53.47;;;35.67;;
39218;SDS011;24934;52.752;6.964;2022-10-31T09:00:50;45.83;;;32.75;;
39218;SDS011;24934;52.752;6.964;2022-10-31T09:03:18;45.67;;;31.27;;
39218;SDS011;24934;52.752;6.964;2022-10-31T09:05:45;43.58;;;30.55;;
39218;SDS011;24934;52.752;6.964;2022-10-31T09:08:11;46.15;;;32.38;;
39218;SDS011;24934;52.752;6.964;2022-10-31T09:10:38;39.35;;;30.52;;
39218;SDS011;24934;52.752;6.964;2022-10-31T09:13:05;42.05;;;29.67;;
39218;SDS011;24934;52.752;6.964;2022-10-31T09:15:42;37.92;;;30.00;;
39218;SDS011;24934;52.752;6.964;2022-10-31T09:18:09;37.85;;;28.42;;
39218;SDS011;24934;52.752;6.964;2022-10-31T09:20:36;37.78;;;29.50;;
39218;SDS011;24934;52.752;6.964;2022-10-31T09:25:32;33.60;;;26.90;;
39218;SDS011;24934;52.752;6.964;2022-10-31T09:27:59;36.80;;;27.50;;
39218;SDS011;24934;52.752;6.964;2022-10-31T09:30:26;35.00;;;26.10;;
39218;SDS011;24934;52.752;6.964;2022-10-31T09:33:26;38.15;;;27.77;;
39218;SDS011;24934;52.752;6.964;2022-10-31T09:35:45;36.83;;;26.83;;
39218;SDS011;24934;52.752;6.964;2022-10-31T09:38:12;37.72;;;27.02;;
39218;SDS011;24934;52.752;6.964;2022-10-31T09:40:47;35.00;;;27.15;;
39218;SDS011;24934;52.752;6.964;2022-10-31T09:43:51;43.13;;;28.60;;
39218;SDS011;24934;52.752;6.964;2022-10-31T09:52:26;35.25;;;27.63;;
39218;SDS011;24934;52.752;6.964;2022-10-31T09:55:00;35.65;;;27.95;;
39218;SDS011;24934;52.752;6.964;2022-10-31T09:57:52;33.40;;;25.80;;
39218;SDS011;24934;52.752;6.964;2022-10-31T10:00:19;34.90;;;27.23;;
39218;SDS011;24934;52.752;6.964;2022-10-31T10:02:47;36.38;;;26.58;;
39218;SDS011;24934;52.752;6.964;2022-10-31T10:05:24;33.50;;;26.65;;
39218;SDS011;24934;52.752;6.964;2022-10-31T10:08:03;34.63;;;27.05;;
39218;SDS011;24934;52.752;6.964;2022-10-31T10:10:40;33.50;;;27.42;;
39218;SDS011;24934;52.752;6.964;2022-10-31T10:16:03;36.08;;;27.88;;
39218;SDS011;24934;52.752;6.964;2022-10-31T10:32:38;34.17;;;25.42;;
39218;SDS011;24934;52.752;6.964;2022-10-31T10:35:14;37.15;;;25.73;;
39218;SDS011;24934;52.752;6.964;2022-10-31T10:37:42;32.47;;;25.23;;
39218;SDS011;24934;52.752;6.964;2022-10-31T10:40:13;35.55;;;26.02;;
39218;SDS011;24934;52.752;6.964;2022-10-31T10:42:44;34.05;;;26.05;;
39218;SDS011;24934;52.752;6.964;2022-10-31T10:45:38;28.98;;;23.30;;
39218;SDS011;24934;52.752;6.964;2022-10-31T10:49:24;33.20;;;23.73;;
39218;SDS011;24934;52.752;6.964;2022-10-31T10:54:31;32.35;;;24.58;;
39218;SDS011;24934;52.752;6.964;2022-10-31T10:57:20;27.60;;;21.77;;
39218;SDS011;24934;52.752;6.964;2022-10-31T10:59:47;28.95;;;23.13;;
39218;SDS011;24934;52.752;6.964;2022-10-31T11:02:26;30.42;;;24.15;;
39218;SDS011;24934;52.752;6.964;2022-10-31T11:04:56;35.47;;;23.45;;
39218;SDS011;24934;52.752;6.964;2022-10-31T11:07:25;34.85;;;22.83;;
39218;SDS011;24934;52.752;6.964;2022-10-31T11:10:01;30.33;;;22.85;;
39218;SDS011;24934;52.752;6.964;2022-10-31T11:12:30;27.83;;;23.23;;
39218;SDS011;24934;52.752;6.964;2022-10-31T11:14:59;30.65;;;23.85;;
39218;SDS011;24934;52.752;6.964;2022-10-31T11:17:31;27.45;;;22.75;;
39218;SDS011;24934;52.752;6.964;2022-10-31T11:22:36;26.15;;;22.08;;
39218;SDS011;24934;52.752;6.964;2022-10-31T11:25:19;27.42;;;21.25;;
39218;SDS011;24934;52.752;6.964;2022-10-31T11:27:45;30.33;;;22.42;;
39218;SDS011;24934;52.752;6.964;2022-10-31T11:30:12;31.92;;;22.02;;
39218;SDS011;24934;52.752;6.964;2022-10-31T11:32:47;30.20;;;22.20;;
39218;SDS011;24934;52.752;6.964;2022-10-31T11:35:18;32.08;;;21.80;;
39218;SDS011;24934;52.752;6.964;2022-10-31T11:37:46;29.77;;;22.85;;
39218;SDS011;24934;52.752;6.964;2022-10-31T11:40:14;28.50;;;23.23;;
39218;SDS011;24934;52.752;6.964;2022-10-31T11:42:45;28.70;;;23.08;;
39218;SDS011;24934;52.752;6.964;2022-10-31T11:45:46;27.17;;;21.40;;
39218;SDS011;24934;52.752;6.964;2022-10-31T11:48:14;25.67;;;20.73;;
39218;SDS011;24934;52.752;6.964;2022-10-31T11:50:42;27.77;;;20.77;;
39218;SDS011;24934;52.752;6.964;2022-10-31T11:53:12;24.25;;;19.98;;
39218;SDS011;24934;52.752;6.964;2022-10-31T11:55:41;28.80;;;20.80;;
39218;SDS011;24934;52.752;6.964;2022-10-31T11:58:21;27.65;;;20.92;;
39218;SDS011;24934;52.752;6.964;2022-10-31T12:00:49;32.35;;;22.58;;
39218;SDS011;24934;52.752;6.964;2022-10-31T12:08:32;27.60;;;20.60;;
39218;SDS011;24934;52.752;6.964;2022-10-31T12:11:07;24.00;;;18.92;;
39218;SDS011;24934;52.752;6.964;2022-10-31T12:13:56;22.77;;;19.10;;
39218;SDS011;24934;52.752;6.964;2022-10-31T12:30:59;21.05;;;16.42;;
39218;SDS011;24934;52.752;6.964;2022-10-31T12:34:35;22.35;;;15.70;;
39218;SDS011;24934;52.752;6.964;2022-10-31T12:37:18;21.75;;;16.30;;
39218;SDS011;24934;52.752;6.964;2022-10-31T12:53:25;19.45;;;16.08;;
39218;SDS011;24934;52.752;6.964;2022-10-31T13:03:55;17.65;;;13.95;;
39218;SDS011;24934;52.752;6.964;2022-10-31T13:06:24;17.05;;;13.23;;
39218;SDS011;24934;52.752;6.964;2022-10-31T13:08:57;16.45;;;13.75;;
39218;SDS011;24934;52.752;6.964;2022-10-31T13:11:30;17.92;;;13.57;;
39218;SDS011;24934;52.752;6.964;2022-10-31T13:14:02;16.13;;;13.13;;
39218;SDS011;24934;52.752;6.964;2022-10-31T13:16:38;17.33;;;14.27;;
39218;SDS011;24934;52.752;6.964;2022-10-31T13:19:16;16.38;;;13.98;;
39218;SDS011;24934;52.752;6.964;2022-10-31T13:21:51;16.42;;;13.32;;
39218;SDS011;24934;52.752;6.964;2022-10-31T13:24:25;17.13;;;13.43;;
39218;SDS011;24934;52.752;6.964;2022-10-31T13:26:57;15.48;;;13.10;;
39218;SDS011;24934;52.752;6.964;2022-10-31T13:29:29;15.93;;;13.10;;
39218;SDS011;24934;52.752;6.964;2022-10-31T13:31:59;16.58;;;13.68;;
39218;SDS011;24934;52.752;6.964;2022-10-31T13:34:30;17.33;;;13.85;;
39218;SDS011;24934;52.752;6.964;2022-10-31T13:45:23;17.25;;;13.43;;
39218;SDS011;24934;52.752;6.964;2022-10-31T13:50:42;20.13;;;13.93;;
39218;SDS011;24934;52.752;6.964;2022-10-31T13:53:20;22.45;;;13.90;;
39218;SDS011;24934;52.752;6.964;2022-10-31T13:56:13;19.52;;;13.98;;
39218;SDS011;24934;52.752;6.964;2022-10-31T13:58:32;18.80;;;13.73;;
39218;SDS011;24934;52.752;6.964;2022-10-31T14:01:05;15.88;;;14.38;;
39218;SDS011;24934;52.752;6.964;2022-10-31T14:03:39;18.83;;;15.07;;
39218;SDS011;24934;52.752;6.964;2022-10-31T14:06:07;16.10;;;14.35;;
39218;SDS011;24934;52.752;6.964;2022-10-31T14:08:36;15.40;;;13.73;;
39218;SDS011;24934;52.752;6.964;2022-10-31T14:11:05;14.82;;;13.32;;
39218;SDS011;24934;52.752;6.964;2022-10-31T14:13:35;16.85;;;13.57;;
39218;SDS011;24934;52.752;6.964;2022-10-31T14:16:06;14.50;;;13.07;;
39218;SDS011;24934;52.752;6.964;2022-10-31T14:18:45;13.55;;;12.13;;
39218;SDS011;24934;52.752;6.964;2022-10-31T14:23:47;17.27;;;14.20;;
39218;SDS011;24934;52.752;6.964;2022-10-31T14:28:49;18.63;;;15.10;;
39218;SDS011;24934;52.752;6.964;2022-10-31T14:51:16;21.48;;;17.38;;
39218;SDS011;24934;52.752;6.964;2022-10-31T14:53:51;20.65;;;16.60;;
39218;SDS011;24934;52.752;6.964;2022-10-31T14:56:26;21.10;;;17.20;;
39218;SDS011;24934;52.752;6.964;2022-10-31T14:58:54;21.98;;;17.85;;
39218;SDS011;24934;52.752;6.964;2022-10-31T15:01:27;26.23;;;18.45;;
39218;SDS011;24934;52.752;6.964;2022-10-31T15:06:47;24.75;;;19.08;;
39218;SDS011;24934;52.752;6.964;2022-10-31T15:09:25;21.25;;;17.77;;
39218;SDS011;24934;52.752;6.964;2022-10-31T15:11:55;19.92;;;17.00;;
39218;SDS011;24934;52.752;6.964;2022-10-31T15:14:27;24.08;;;19.88;;
39218;SDS011;24934;52.752;6.964;2022-10-31T15:16:58;21.83;;;17.85;;
39218;SDS011;24934;52.752;6.964;2022-10-31T15:19:28;21.83;;;18.08;;
39218;SDS011;24934;52.752;6.964;2022-10-31T15:21:56;22.70;;;19.13;;
39218;SDS011;24934;52.752;6.964;2022-10-31T15:24:28;20.73;;;18.40;;
39218;SDS011;24934;52.752;6.964;2022-10-31T15:26:58;25.05;;;19.77;;
39218;SDS011;24934;52.752;6.964;2022-10-31T15:29:25;23.60;;;19.20;;
39218;SDS011;24934;52.752;6.964;2022-10-31T15:32:09;21.38;;;17.73;;
39218;SDS011;24934;52.752;6.964;2022-10-31T15:34:45;23.63;;;19.58;;
39218;SDS011;24934;52.752;6.964;2022-10-31T15:37:11;24.85;;;18.17;;
39218;SDS011;24934;52.752;6.964;2022-10-31T15:39:38;23.65;;;20.35;;
39218;SDS011;24934;52.752;6.964;2022-10-31T15:42:04;25.17;;;19.33;;
39218;SDS011;24934;52.752;6.964;2022-10-31T15:44:40;28.30;;;18.58;;
39218;SDS011;24934;52.752;6.964;2022-10-31T15:47:13;26.33;;;20.85;;
39218;SDS011;24934;52.752;6.964;2022-10-31T15:50:03;25.58;;;19.88;;
39218;SDS011;24934;52.752;6.964;2022-10-31T15:52:40;25.13;;;20.35;;
39218;SDS011;24934;52.752;6.964;2022-10-31T15:57:33;27.65;;;20.58;;
39218;SDS011;24934;52.752;6.964;2022-10-31T16:00:06;28.77;;;21.17;;
39218;SDS011;24934;52.752;6.964;2022-10-31T16:02:45;31.60;;;22.23;;
39218;SDS011;24934;52.752;6.964;2022-10-31T16:05:15;32.78;;;21.42;;
39218;SDS011;24934;52.752;6.964;2022-10-31T16:07:49;36.03;;;23.83;;
39218;SDS011;24934;52.752;6.964;2022-10-31T16:10:23;32.85;;;22.85;;
39218;SDS011;24934;52.752;6.964;2022-10-31T16:12:50;29.92;;;22.33;;
39218;SDS011;24934;52.752;6.964;2022-10-31T16:15:17;34.60;;;23.17;;
39218;SDS011;24934;52.752;6.964;2022-10-31T16:17:46;33.95;;;22.25;;
39218;SDS011;24934;52.752;6.964;2022-10-31T16:20:29;30.08;;;22.65;;
39218;SDS011;24934;52.752;6.964;2022-10-31T16:22:57;32.53;;;24.23;;
39218;SDS011;24934;52.752;6.964;2022-10-31T16:28:18;36.85;;;24.13;;
39218;SDS011;24934;52.752;6.964;2022-10-31T16:30:49;40.80;;;25.45;;
39218;SDS011;24934;52.752;6.964;2022-10-31T16:36:28;41.50;;;25.88;;
39218;SDS011;24934;52.752;6.964;2022-10-31T16:38:56;39.50;;;25.13;;
39218;SDS011;24934;52.752;6.964;2022-10-31T16:41:23;39.38;;;25.25;;
39218;SDS011;24934;52.752;6.964;2022-10-31T16:43:50;40.58;;;27.08;;
39218;SDS011;24934;52.752;6.964;2022-10-31T16:46:21;38.42;;;27.10;;
39218;SDS011;24934;52.752;6.964;2022-10-31T16:48:49;39.03;;;27.45;;
39218;SDS011;24934;52.752;6.964;2022-10-31T16:51:15;35.00;;;26.55;;
39218;SDS011;24934;52.752;6.964;2022-10-31T16:53:41;46.38;;;28.58;;
39218;SDS011;24934;52.752;6.964;2022-10-31T16:56:11;43.83;;;28.88;;
39218;SDS011;24934;52.752;6.964;2022-10-31T16:58:45;43.17;;;29.02;;
39218;SDS011;24934;52.752;6.964;2022-10-31T17:01:10;43.50;;;28.58;;
39218;SDS011;24934;52.752;6.964;2022-10-31T17:03:37;40.75;;;28.17;;
39218;SDS011;24934;52.752;6.964;2022-10-31T17:06:03;42.03;;;28.45;;